Time;durP1;ratioP1;P1;durP2;ratioP2;P2;SDS_P1;SDS_P2;PMS_P1;PMS_P2;Temp;Humidity;BMP_temperature;BMP_pressure;BME280_temperature;BME280_humidity;BME280_pressure;Samples;Min_cycle;Max_cycle;Signal;HPM_P1;HPM_P2
2022/09/23 00:02:07;;;;;;;6.93;4.40;;;5.90;97.50;;;;;;5045551;28;20194;-85
2022/09/23 00:04:34;;;;;;;5.60;4.50;;;5.90;97.30;;;;;;5053490;28;20308;-85
2022/09/23 00:07:02;;;;;;;6.87;4.40;;;5.90;97.60;;;;;;5048315;28;20213;-85
2022/09/23 00:09:29;;;;;;;7.07;4.37;;;5.90;97.30;;;;;;5045734;28;20255;-85
2022/09/23 00:11:56;;;;;;;6.80;4.90;;;6.00;97.20;;;;;;5048794;28;20202;-85
2022/09/23 00:14:23;;;;;;;6.50;4.80;;;5.90;97.10;;;;;;5054423;28;20228;-84
2022/09/23 00:16:50;;;;;;;6.87;4.10;;;5.80;97.10;;;;;;5059192;28;20206;-84
2022/09/23 00:19:17;;;;;;;5.77;4.47;;;5.70;97.30;;;;;;5057292;28;20683;-85
2022/09/23 00:21:44;;;;;;;4.90;4.37;;;5.70;97.20;;;;;;5050787;28;20557;-85
2022/09/23 00:24:12;;;;;;;6.77;4.40;;;5.70;97.40;;;;;;5053053;28;20212;-85
2022/09/23 00:26:38;;;;;;;5.10;4.60;;;5.70;97.50;;;;;;5052521;28;20194;-85
2022/09/23 00:29:05;;;;;;;5.30;4.13;;;5.70;97.40;;;;;;5052026;28;20202;-85
2022/09/23 00:31:35;;;;;;;6.70;4.37;;;5.70;97.00;;;;;;5054004;28;20214;-85
2022/09/23 00:34:02;;;;;;;6.27;4.50;;;5.60;96.90;;;;;;5055264;28;20283;-85
2022/09/23 00:36:31;;;;;;;5.23;4.00;;;5.60;97.10;;;;;;5056289;28;20201;-84
2022/09/23 00:38:57;;;;;;;4.83;4.13;;;5.60;97.20;;;;;;5057007;28;20665;-85
2022/09/23 00:41:26;;;;;;;7.47;4.43;;;5.60;97.00;;;;;;5058819;28;20202;-85
2022/09/23 00:44:00;;;;;;;4.90;4.40;;;5.50;97.10;;;;;;5061130;28;20208;-85
2022/09/23 00:46:32;;;;;;;5.60;4.10;;;5.50;97.20;;;;;;5065188;28;20197;-84
2022/09/23 00:49:04;;;;;;;6.07;4.80;;;5.50;97.30;;;;;;5070093;28;20204;-84
2022/09/23 00:51:36;;;;;;;6.50;4.33;;;5.40;97.00;;;;;;5063293;28;20198;-84
2022/09/23 00:54:05;;;;;;;5.90;4.43;;;5.40;97.20;;;;;;5060337;28;20230;-85
2022/09/23 00:56:34;;;;;;;6.43;4.20;;;5.40;97.10;;;;;;5055207;28;20567;-85
2022/09/23 00:59:01;;;;;;;6.47;4.60;;;5.30;97.10;;;;;;5049376;28;20206;-85
2022/09/23 01:01:28;;;;;;;4.57;4.17;;;5.30;97.20;;;;;;5051778;28;20217;-85
2022/09/23 01:03:56;;;;;;;6.87;4.50;;;5.40;97.10;;;;;;5053995;28;20202;-85
2022/09/23 01:06:29;;;;;;;4.67;4.23;;;5.40;97.20;;;;;;5049196;28;20233;-85
2022/09/23 01:08:56;;;;;;;6.93;4.80;;;5.30;97.30;;;;;;5050083;28;20557;-85
2022/09/23 01:11:40;;;;;;;7.57;4.57;;;5.30;97.10;;;;;;5054106;28;20210;-85
2022/09/23 01:14:20;;;;;;;5.37;4.87;;;5.20;97.20;;;;;;5053520;28;20221;-85
2022/09/23 01:16:54;;;;;;;5.47;4.40;;;5.10;97.30;;;;;;5048173;28;20208;-85
2022/09/23 01:19:38;;;;;;;6.60;4.47;;;5.10;97.50;;;;;;5040837;28;20666;-86
2022/09/23 01:22:14;;;;;;;5.10;4.60;;;5.10;97.60;;;;;;5054339;28;20208;-85
2022/09/23 01:24:58;;;;;;;4.80;4.27;;;5.10;97.70;;;;;;5052889;28;20200;-85
2022/09/23 01:27:49;;;;;;;6.23;4.47;;;5.10;97.70;;;;;;5043497;28;20324;-85
2022/09/23 01:30:32;;;;;;;6.07;4.50;;;5.10;97.70;;;;;;5052507;28;20213;-85
2022/09/23 01:33:14;;;;;;;5.13;4.43;;;5.00;97.70;;;;;;5051223;28;20202;-85
2022/09/23 01:36:01;;;;;;;5.87;4.50;;;5.00;97.70;;;;;;5052351;28;20685;-85
2022/09/23 01:38:36;;;;;;;4.60;4.10;;;5.00;97.70;;;;;;5043866;28;20220;-84
2022/09/23 01:41:08;;;;;;;5.97;4.37;;;5.00;97.60;;;;;;5054992;28;20202;-84
2022/09/23 01:43:42;;;;;;;5.60;4.73;;;4.90;97.60;;;;;;5053254;28;20206;-84
2022/09/23 01:46:17;;;;;;;5.40;4.37;;;4.90;98.00;;;;;;5040788;28;20214;-84
2022/09/23 01:48:49;;;;;;;7.83;5.37;;;5.00;97.70;;;;;;5051451;28;20707;-84
2022/09/23 01:51:20;;;;;;;4.60;4.10;;;5.10;97.50;;;;;;5053811;28;20647;-84
2022/09/23 01:53:52;;;;;;;5.27;4.10;;;5.00;97.20;;;;;;5042860;28;20232;-84
2022/09/23 01:56:23;;;;;;;6.60;4.73;;;4.90;97.50;;;;;;5049720;28;20688;-84
2022/09/23 01:58:54;;;;;;;6.00;4.23;;;4.90;97.20;;;;;;5051904;28;20319;-85
2022/09/23 02:01:29;;;;;;;6.20;4.63;;;4.90;97.20;;;;;;5052403;28;20198;-85
2022/09/23 02:04:00;;;;;;;6.20;4.20;;;4.80;97.60;;;;;;5050956;28;20209;-85
2022/09/23 02:06:31;;;;;;;4.53;3.87;;;4.90;97.60;;;;;;5051742;28;20224;-85
2022/09/23 02:09:00;;;;;;;4.87;4.30;;;5.00;97.60;;;;;;5053221;28;20554;-85
2022/09/23 02:11:28;;;;;;;5.57;4.27;;;5.00;97.40;;;;;;5053456;28;20198;-85
2022/09/23 02:13:58;;;;;;;6.40;4.27;;;5.00;97.40;;;;;;5041063;28;20223;-85
2022/09/23 02:16:33;;;;;;;5.17;4.33;;;5.00;97.40;;;;;;5048243;28;20443;-85
2022/09/23 02:19:05;;;;;;;7.70;4.40;;;4.90;97.40;;;;;;5045441;28;20576;-85
2022/09/23 02:21:35;;;;;;;6.00;4.57;;;4.90;97.70;;;;;;5052019;28;20201;-85
2022/09/23 02:24:08;;;;;;;5.93;4.37;;;4.80;97.70;;;;;;5054047;28;20210;-85
2022/09/23 02:26:40;;;;;;;8.10;4.43;;;4.80;97.50;;;;;;5052358;28;20194;-85
2022/09/23 02:29:15;;;;;;;5.50;4.30;;;4.80;97.70;;;;;;5051137;28;20204;-85
2022/09/23 02:31:50;;;;;;;4.93;4.20;;;4.70;97.60;;;;;;5042152;28;20206;-85
2022/09/23 02:34:27;;;;;;;5.03;4.27;;;4.70;97.60;;;;;;5050413;28;20765;-85
2022/09/23 02:37:08;;;;;;;4.63;4.00;;;4.80;97.70;;;;;;5048249;28;20205;-85
2022/09/23 02:39:42;;;;;;;5.50;4.30;;;4.70;97.50;;;;;;5044401;28;20232;-85
2022/09/23 02:42:14;;;;;;;6.43;4.07;;;4.70;97.60;;;;;;5052436;28;20252;-85
2022/09/23 02:44:41;;;;;;;5.10;4.40;;;4.70;97.60;;;;;;5044664;28;20210;-85
2022/09/23 02:47:09;;;;;;;6.23;4.80;;;4.70;97.60;;;;;;5050118;28;20712;-85
2022/09/23 02:49:36;;;;;;;4.90;4.20;;;4.70;97.60;;;;;;5042425;28;20202;-85
2022/09/23 02:52:06;;;;;;;5.37;4.47;;;4.70;97.60;;;;;;5051887;28;20210;-84
2022/09/23 02:54:34;;;;;;;6.57;4.27;;;4.70;97.60;;;;;;5052794;28;20423;-85
2022/09/23 02:57:04;;;;;;;5.83;4.80;;;4.60;97.60;;;;;;5049989;28;20238;-85
2022/09/23 02:59:32;;;;;;;5.40;4.43;;;4.60;97.60;;;;;;5047171;28;20671;-86
2022/09/23 03:02:46;;;;;;;5.30;4.30;;;4.70;97.50;;;;;;5051927;28;20205;-85
2022/09/23 03:05:22;;;;;;;6.10;4.23;;;4.70;97.10;;;;;;5046650;28;20228;-85
2022/09/23 03:08:00;;;;;;;6.27;4.43;;;4.60;97.40;;;;;;5049530;28;20213;-85
2022/09/23 03:10:33;;;;;;;5.30;4.27;;;4.60;97.70;;;;;;5046923;28;20206;-85
2022/09/23 03:13:10;;;;;;;6.30;4.47;;;4.60;97.60;;;;;;5048716;28;20201;-85
2022/09/23 03:15:51;;;;;;;4.67;3.93;;;4.50;97.50;;;;;;5047522;28;20241;-85
2022/09/23 03:18:39;;;;;;;4.87;4.37;;;4.40;97.60;;;;;;5038457;28;20300;-85
2022/09/23 03:21:09;;;;;;;5.40;4.10;;;4.30;97.50;;;;;;5048527;28;20198;-85
2022/09/23 03:23:40;;;;;;;4.60;4.17;;;4.40;97.90;;;;;;5051573;28;20206;-85
2022/09/23 03:26:11;;;;;;;5.13;3.77;;;4.40;97.80;;;;;;5052051;28;20202;-85
2022/09/23 03:28:43;;;;;;;4.00;3.60;;;4.50;97.50;;;;;;5050555;28;20244;-85
2022/09/23 03:31:11;;;;;;;4.33;3.40;;;4.50;97.20;;;;;;5052290;28;20201;-85
2022/09/23 03:33:42;;;;;;;5.93;4.00;;;4.40;97.20;;;;;;5049975;28;20207;-85
2022/09/23 03:39:11;;;;;;;4.63;3.53;;;4.20;97.10;;;;;;5038522;28;20200;-84
2022/09/23 03:41:42;;;;;;;6.13;3.40;;;4.20;97.30;;;;;;5052426;28;20236;-84
2022/09/23 03:44:10;;;;;;;4.03;3.47;;;4.30;97.30;;;;;;5046518;28;20202;-84
2022/09/23 03:46:42;;;;;;;6.30;3.60;;;4.30;97.30;;;;;;5047074;28;20281;-84
2022/09/23 03:49:16;;;;;;;3.30;3.00;;;4.30;97.20;;;;;;5049103;28;20226;-85
2022/09/23 03:51:42;;;;;;;3.70;3.30;;;4.20;97.10;;;;;;5041391;28;20213;-84
2022/09/23 03:54:09;;;;;;;4.73;3.53;;;4.20;97.30;;;;;;5051488;28;20218;-84
2022/09/23 03:56:36;;;;;;;3.83;3.03;;;4.20;97.40;;;;;;5059864;28;20194;-83
2022/09/23 03:59:03;;;;;;;3.90;3.50;;;4.20;97.20;;;;;;5056529;28;20194;-83
2022/09/23 04:01:30;;;;;;;4.07;3.03;;;4.20;97.00;;;;;;5052095;28;20201;-84
2022/09/23 04:03:57;;;;;;;3.40;3.10;;;4.10;97.40;;;;;;5052198;28;20213;-84
2022/09/23 04:06:25;;;;;;;4.10;3.23;;;4.10;97.30;;;;;;5049907;28;20225;-84
2022/09/23 04:08:51;;;;;;;5.40;3.90;;;4.00;97.40;;;;;;5052649;28;20272;-84
2022/09/23 04:11:18;;;;;;;4.10;3.53;;;4.00;97.20;;;;;;5048463;28;20199;-83
2022/09/23 04:13:45;;;;;;;4.27;3.50;;;4.10;97.20;;;;;;5050114;28;20209;-84
2022/09/23 04:16:12;;;;;;;6.07;3.20;;;4.10;97.10;;;;;;5047814;28;20211;-84
2022/09/23 04:18:38;;;;;;;3.97;3.40;;;4.10;97.10;;;;;;5043514;28;20209;-84
2022/09/23 04:21:05;;;;;;;4.43;3.53;;;4.10;96.90;;;;;;5041233;28;20213;-84
2022/09/23 04:23:34;;;;;;;6.83;3.63;;;4.00;97.00;;;;;;5051518;28;20212;-84
2022/09/23 04:26:00;;;;;;;3.70;3.30;;;4.00;97.20;;;;;;5052212;28;20213;-85
2022/09/23 04:28:27;;;;;;;4.10;3.40;;;3.80;97.10;;;;;;5048503;28;20198;-84
2022/09/23 04:30:56;;;;;;;3.93;3.13;;;3.90;97.40;;;;;;5047611;28;20632;-85
2022/09/23 04:33:24;;;;;;;6.27;3.30;;;3.90;97.40;;;;;;5050980;28;20225;-85
2022/09/23 04:35:52;;;;;;;4.07;3.43;;;3.80;97.30;;;;;;5051104;28;20229;-84
2022/09/23 04:38:29;;;;;;;4.40;3.33;;;3.80;97.40;;;;;;5052474;28;20213;-84
2022/09/23 04:40:57;;;;;;;6.13;3.40;;;3.80;97.40;;;;;;5042100;28;20209;-85
2022/09/23 04:43:24;;;;;;;6.10;3.27;;;3.70;97.50;;;;;;5048952;28;20210;-85
2022/09/23 04:45:58;;;;;;;6.40;3.03;;;3.80;97.40;;;;;;5056127;28;20209;-84
2022/09/23 04:48:29;;;;;;;4.20;3.40;;;3.90;97.40;;;;;;5047875;28;20255;-85
2022/09/23 04:51:03;;;;;;;4.57;3.23;;;4.00;97.30;;;;;;5052006;28;20649;-84
2022/09/23 04:53:30;;;;;;;3.80;3.40;;;4.00;96.90;;;;;;5050503;28;20213;-84
2022/09/23 04:56:02;;;;;;;4.10;3.50;;;4.00;97.00;;;;;;5066073;28;20230;-85
2022/09/23 04:58:29;;;;;;;3.93;3.53;;;4.00;97.30;;;;;;5061154;28;20569;-85
2022/09/23 05:00:56;;;;;;;5.30;3.27;;;4.10;97.40;;;;;;5061692;28;20209;-85
2022/09/23 05:03:23;;;;;;;5.00;3.80;;;4.10;96.90;;;;;;5054924;28;20614;-85
2022/09/23 05:05:51;;;;;;;5.07;3.70;;;4.10;96.90;;;;;;5048471;28;20226;-85
2022/09/23 05:08:18;;;;;;;4.10;3.37;;;4.10;96.90;;;;;;5051468;28;20606;-85
2022/09/23 05:10:44;;;;;;;8.57;4.50;;;4.00;96.50;;;;;;5052604;28;20241;-85
2022/09/23 05:13:13;;;;;;;8.17;5.37;;;3.90;96.60;;;;;;5050207;28;20733;-85
2022/09/23 05:15:58;;;;;;;6.83;4.80;;;3.90;97.20;;;;;;5055293;28;20218;-86
2022/09/23 05:18:25;;;;;;;6.17;4.20;;;3.90;97.00;;;;;;5052925;28;20629;-84
2022/09/23 05:20:54;;;;;;;6.27;4.50;;;3.90;96.80;;;;;;5054795;28;20231;-85
2022/09/23 05:23:21;;;;;;;4.63;3.67;;;3.80;96.80;;;;;;5054258;28;20209;-85
2022/09/23 05:25:48;;;;;;;5.00;3.83;;;3.90;97.20;;;;;;5051518;28;20300;-86
2022/09/23 05:28:18;;;;;;;3.90;3.50;;;4.10;97.20;;;;;;5050064;28;20210;-84
2022/09/23 05:30:45;;;;;;;5.70;3.77;;;4.40;96.90;;;;;;5043515;28;20205;-85
2022/09/23 05:33:13;;;;;;;35.83;23.00;;;4.60;95.70;;;;;;5040289;28;20202;-85
2022/09/23 05:35:40;;;;;;;7.30;4.40;;;4.50;96.00;;;;;;5038359;28;20218;-85
2022/09/23 05:38:07;;;;;;;72.03;49.13;;;4.70;95.00;;;;;;5037222;28;20305;-85
2022/09/23 05:40:33;;;;;;;8.33;5.67;;;4.60;95.90;;;;;;5050243;28;20194;-85
2022/09/23 05:43:00;;;;;;;22.87;14.27;;;4.90;95.10;;;;;;5055117;28;20212;-85
2022/09/23 05:45:28;;;;;;;75.53;47.50;;;4.70;95.00;;;;;;5039047;28;20221;-85
2022/09/23 05:47:55;;;;;;;19.43;12.70;;;5.00;96.30;;;;;;5036594;28;20194;-85
2022/09/23 05:50:22;;;;;;;6.00;3.80;;;5.20;95.10;;;;;;5041278;28;20202;-86
2022/09/23 05:52:49;;;;;;;9.67;7.00;;;5.00;94.40;;;;;;5053995;28;20666;-85
2022/09/23 05:55:15;;;;;;;11.77;7.33;;;4.80;95.10;;;;;;5041476;28;20226;-85
2022/09/23 05:57:42;;;;;;;6.57;4.77;;;5.10;96.30;;;;;;5052812;28;20209;-85
2022/09/23 06:00:10;;;;;;;5.07;3.90;;;5.20;95.20;;;;;;5044949;28;20213;-85
2022/09/23 06:02:39;;;;;;;6.33;5.07;;;5.40;95.10;;;;;;5044780;28;20213;-84
2022/09/23 06:05:06;;;;;;;6.90;3.57;;;5.40;96.10;;;;;;5052787;28;20229;-85
2022/09/23 06:07:33;;;;;;;4.97;4.10;;;5.70;95.20;;;;;;5048850;28;20206;-85
2022/09/23 06:10:00;;;;;;;5.60;3.70;;;5.50;94.70;;;;;;5051210;28;20221;-85
2022/09/23 06:12:27;;;;;;;5.73;3.73;;;5.70;95.20;;;;;;5042185;28;20309;-85
2022/09/23 06:14:53;;;;;;;6.73;3.07;;;6.10;95.30;;;;;;5043767;28;20210;-85
2022/09/23 06:17:20;;;;;;;4.10;3.47;;;6.20;93.90;;;;;;5053747;28;20198;-85
2022/09/23 06:19:48;;;;;;;7.80;3.40;;;6.40;95.40;;;;;;5053636;28;20209;-86
2022/09/23 06:22:17;;;;;;;6.23;3.20;;;6.30;93.50;;;;;;5053724;28;20209;-85
2022/09/23 06:24:44;;;;;;;9.47;7.27;;;6.00;93.60;;;;;;5050251;28;20198;-85
2022/09/23 06:27:11;;;;;;;21.80;14.57;;;5.80;94.70;;;;;;5044976;28;20206;-86
2022/09/23 06:29:37;;;;;;;4.00;3.60;;;5.70;95.20;;;;;;5042282;28;20202;-84
2022/09/23 06:32:05;;;;;;;4.50;3.90;;;5.70;95.80;;;;;;5046382;28;20700;-84
2022/09/23 06:34:44;;;;;;;5.70;4.60;;;5.60;96.10;;;;;;5039542;28;20677;-86
2022/09/23 06:37:12;;;;;;;9.30;5.80;;;5.60;96.40;;;;;;5039763;28;20212;-87
2022/09/23 06:39:39;;;;;;;6.23;3.67;;;5.60;96.80;;;;;;5042047;28;20194;-87
2022/09/23 06:42:06;;;;;;;6.70;3.97;;;5.70;96.90;;;;;;5046923;28;20198;-87
2022/09/23 06:44:33;;;;;;;7.67;4.40;;;5.70;97.10;;;;;;5040891;28;20206;-86
2022/09/23 06:47:05;;;;;;;4.63;3.60;;;5.90;97.10;;;;;;5051380;28;20190;-83
2022/09/23 06:49:41;;;;;;;4.93;3.47;;;6.00;97.00;;;;;;5050212;28;20551;-84
2022/09/23 06:52:09;;;;;;;8.93;5.03;;;6.10;96.90;;;;;;5046699;28;20201;-84
2022/09/23 06:54:37;;;;;;;7.00;3.90;;;6.30;97.00;;;;;;5049411;28;20571;-87
2022/09/23 06:57:04;;;;;;;5.23;3.60;;;6.50;96.50;;;;;;5053493;28;20486;-85
2022/09/23 06:59:31;;;;;;;5.93;3.73;;;6.70;96.10;;;;;;5049864;28;20194;-84
2022/09/23 07:01:57;;;;;;;5.43;3.60;;;6.80;95.70;;;;;;5047013;28;20198;-85
2022/09/23 07:04:30;;;;;;;5.57;3.90;;;6.80;95.70;;;;;;5048634;28;20566;-84
2022/09/23 07:07:05;;;;;;;5.57;3.70;;;7.00;96.10;;;;;;5050338;28;20546;-85
2022/09/23 07:09:32;;;;;;;5.53;3.58;;;7.20;95.80;;;;;;5044891;28;20358;-85
2022/09/23 07:12:00;;;;;;;4.97;3.50;;;7.30;95.60;;;;;;5051308;28;20198;-85
2022/09/23 07:14:27;;;;;;;5.90;3.90;;;7.50;95.60;;;;;;5052626;28;20194;-85
2022/09/23 07:16:54;;;;;;;6.03;3.70;;;7.60;95.60;;;;;;5055751;28;20544;-86
2022/09/23 07:19:20;;;;;;;5.38;3.53;;;7.70;95.60;;;;;;5057136;28;20208;-86
2022/09/23 07:21:47;;;;;;;5.63;3.38;;;7.90;94.70;;;;;;5051909;28;20657;-85
2022/09/23 07:24:14;;;;;;;8.20;3.45;;;8.00;94.70;;;;;;5049876;28;20517;-84
2022/09/23 07:26:41;;;;;;;6.07;2.80;;;8.10;94.90;;;;;;5052046;28;20210;-84
2022/09/23 07:29:13;;;;;;;4.13;3.10;;;8.20;94.70;;;;;;5048658;28;20669;-86
2022/09/23 07:31:40;;;;;;;4.88;3.03;;;8.30;94.00;;;;;;5053481;28;20206;-84
2022/09/23 07:34:11;;;;;;;5.22;3.20;;;8.40;94.00;;;;;;5046950;28;20232;-84
2022/09/23 07:36:39;;;;;;;3.60;2.80;;;8.60;93.80;;;;;;5050977;28;20625;-85
2022/09/23 07:39:06;;;;;;;3.63;2.60;;;8.70;92.40;;;;;;5049024;28;20625;-85
2022/09/23 07:41:34;;;;;;;3.53;2.70;;;8.90;92.40;;;;;;5048247;28;20645;-84
2022/09/23 07:44:02;;;;;;;3.40;3.00;;;9.00;92.80;;;;;;5048781;28;20202;-84
2022/09/23 07:46:31;;;;;;;4.00;2.72;;;9.10;91.20;;;;;;5049105;28;20289;-84
2022/09/23 07:48:59;;;;;;;3.63;2.85;;;9.50;91.50;;;;;;5046237;28;20669;-84
2022/09/23 07:51:32;;;;;;;2.95;2.30;;;9.70;90.60;;;;;;5047702;28;20680;-85
2022/09/23 07:53:59;;;;;;;2.80;2.58;;;10.10;88.60;;;;;;5046113;28;20206;-85
2022/09/23 07:56:30;;;;;;;2.88;2.60;;;10.30;86.90;;;;;;5049221;28;20236;-84
2022/09/23 07:59:07;;;;;;;4.07;2.85;;;10.30;87.30;;;;;;5051178;28;20197;-84
2022/09/23 08:01:37;;;;;;;4.68;2.42;;;10.40;86.00;;;;;;5057457;28;20719;-84
2022/09/23 08:04:06;;;;;;;3.50;2.55;;;10.40;85.80;;;;;;5049195;28;20201;-85
2022/09/23 08:06:33;;;;;;;3.83;2.97;;;10.30;84.00;;;;;;5058787;28;20674;-82
2022/09/23 08:09:05;;;;;;;3.20;2.83;;;10.50;82.80;;;;;;5049502;28;20615;-82
2022/09/23 08:11:32;;;;;;;2.67;2.45;;;10.50;83.70;;;;;;5046149;28;20221;-82
2022/09/23 08:13:58;;;;;;;3.00;2.30;;;10.60;84.90;;;;;;5049977;28;20208;-81
2022/09/23 08:16:25;;;;;;;4.32;2.65;;;10.80;86.20;;;;;;5059228;28;20224;-82
2022/09/23 08:18:54;;;;;;;2.95;2.30;;;10.90;81.10;;;;;;5056533;28;20236;-82
2022/09/23 08:21:23;;;;;;;5.32;2.45;;;11.10;82.00;;;;;;5051173;28;20198;-82
2022/09/23 08:23:50;;;;;;;3.67;2.40;;;11.30;82.70;;;;;;5051506;28;20198;-83
2022/09/23 08:26:17;;;;;;;2.28;2.08;;;11.40;79.40;;;;;;5044950;28;20217;-83
2022/09/23 08:28:46;;;;;;;2.78;2.28;;;11.50;80.20;;;;;;5048522;28;20213;-82
2022/09/23 08:31:17;;;;;;;3.03;1.83;;;11.50;79.50;;;;;;5042023;28;20650;-82
2022/09/23 08:33:47;;;;;;;5.85;2.40;;;11.60;79.80;;;;;;5041136;28;20202;-84
2022/09/23 08:36:19;;;;;;;2.20;2.00;;;11.70;80.00;;;;;;5041599;28;20221;-82
2022/09/23 08:38:45;;;;;;;3.63;1.80;;;11.80;77.80;;;;;;5049958;28;20208;-82
2022/09/23 08:41:18;;;;;;;2.55;1.95;;;11.90;77.90;;;;;;5057496;28;20198;-82
2022/09/23 08:43:48;;;;;;;2.20;2.00;;;12.20;76.20;;;;;;5050422;28;20194;-83
2022/09/23 08:46:23;;;;;;;3.17;1.98;;;12.30;73.60;;;;;;5057466;28;20229;-83
2022/09/23 08:48:50;;;;;;;2.22;1.90;;;12.50;69.50;;;;;;5056378;28;20200;-83
2022/09/23 08:51:25;;;;;;;2.65;2.10;;;12.60;70.30;;;;;;5054443;28;20194;-83
2022/09/23 08:54:00;;;;;;;2.15;1.90;;;12.70;69.20;;;;;;5055769;28;20531;-83
2022/09/23 08:56:31;;;;;;;2.50;1.75;;;12.80;70.70;;;;;;5061852;28;20221;-83
2022/09/23 08:59:04;;;;;;;1.90;1.80;;;12.90;68.10;;;;;;5050710;28;20574;-83
2022/09/23 09:01:39;;;;;;;5.20;2.20;;;13.10;67.30;;;;;;5052780;28;20201;-85
2022/09/23 09:04:21;;;;;;;2.60;1.75;;;13.30;62.90;;;;;;5064864;28;20198;-85
2022/09/23 09:06:58;;;;;;;2.00;1.88;;;13.40;59.70;;;;;;5061485;28;20197;-86
2022/09/23 09:09:32;;;;;;;2.45;1.80;;;13.70;58.00;;;;;;5059492;28;20208;-84
2022/09/23 09:12:04;;;;;;;2.67;2.08;;;14.00;55.30;;;;;;5042869;28;20218;-85
2022/09/23 09:14:37;;;;;;;2.17;1.80;;;14.30;55.90;;;;;;5044667;28;20197;-84
2022/09/23 09:17:07;;;;;;;2.63;1.70;;;14.80;53.20;;;;;;5048536;28;20698;-85
2022/09/23 09:19:58;;;;;;;4.00;2.00;;;15.40;49.00;;;;;;5046694;28;20666;-84
2022/09/23 09:22:42;;;;;;;3.63;1.73;;;16.50;37.00;;;;;;5048941;28;20206;-84
2022/09/23 09:25:21;;;;;;;1.73;1.63;;;17.60;34.30;;;;;;5052410;28;20237;-79
2022/09/23 09:27:48;;;;;;;2.55;1.80;;;18.80;31.10;;;;;;5055361;28;20225;-83
2022/09/23 09:30:16;;;;;;;6.10;1.98;;;20.30;23.90;;;;;;5050889;28;20198;-85
2022/09/23 09:32:47;;;;;;;3.15;1.90;;;21.30;21.90;;;;;;5056184;28;20284;-81
2022/09/23 09:35:24;;;;;;;2.75;2.50;;;21.80;19.30;;;;;;5049210;28;20236;-85
2022/09/23 09:37:52;;;;;;;3.63;2.35;;;22.60;18.60;;;;;;5047813;28;20193;-82
2022/09/23 09:40:19;;;;;;;4.35;2.35;;;24.10;15.10;;;;;;5046433;28;20280;-83
2022/09/23 09:42:49;;;;;;;2.72;2.47;;;24.70;14.00;;;;;;5045535;28;20201;-83
2022/09/23 09:45:23;;;;;;;3.17;2.58;;;24.80;14.10;;;;;;5040022;28;20229;-84
2022/09/23 09:48:01;;;;;;;3.10;2.80;;;25.60;12.20;;;;;;5042345;28;20226;-84
2022/09/23 09:50:48;;;;;;;4.45;2.70;;;24.80;14.10;;;;;;5045218;28;20186;-83
2022/09/23 09:53:24;;;;;;;3.05;2.60;;;24.20;13.70;;;;;;5039204;28;20297;-84
2022/09/23 09:56:04;;;;;;;3.80;2.88;;;24.30;13.70;;;;;;5048667;28;20228;-84
2022/09/23 09:58:42;;;;;;;4.32;2.95;;;23.80;14.80;;;;;;5047799;28;20193;-83
2022/09/23 10:01:18;;;;;;;4.25;2.80;;;23.20;15.40;;;;;;5045179;28;20229;-84
2022/09/23 10:03:45;;;;;;;3.88;2.60;;;22.70;16.60;;;;;;5042450;28;20205;-83
2022/09/23 10:06:23;;;;;;;4.93;2.80;;;22.80;16.80;;;;;;5046069;28;20316;-83
2022/09/23 10:09:10;;;;;;;5.85;3.50;;;23.70;15.60;;;;;;5046001;28;20201;-83
2022/09/23 10:11:37;;;;;;;4.13;2.65;;;23.20;17.10;;;;;;5047241;28;20289;-83
2022/09/23 10:14:09;;;;;;;3.17;2.88;;;23.70;15.50;;;;;;5041574;28;20258;-83
2022/09/23 10:16:40;;;;;;;3.30;3.00;;;24.20;13.70;;;;;;5041889;28;20308;-84
2022/09/23 10:19:14;;;;;;;3.65;3.33;;;24.90;14.10;;;;;;5056993;28;20305;-84
2022/09/23 10:21:41;;;;;;;5.30;3.20;;;24.00;13.70;;;;;;5052559;28;20247;-84
2022/09/23 10:24:23;;;;;;;3.17;2.85;;;23.70;13.80;;;;;;5047445;28;20197;-84
2022/09/23 10:27:11;;;;;;;3.58;3.15;;;23.80;13.40;;;;;;5040568;28;20201;-84
2022/09/23 10:29:40;;;;;;;5.45;2.97;;;23.30;16.40;;;;;;5047864;28;20197;-84
2022/09/23 10:32:26;;;;;;;6.90;3.13;;;22.40;18.60;;;;;;5049425;28;20230;-84
2022/09/23 10:34:56;;;;;;;3.33;2.90;;;22.30;19.40;;;;;;4983596;28;20200;-84
2022/09/23 10:37:32;;;;;;;3.88;3.47;;;23.00;15.20;;;;;;4987103;28;20362;-83
2022/09/23 10:49:07;;;;;;;3.05;2.45;;;22.10;17.70;;;;;;4974984;28;20206;-85
2022/09/23 10:51:41;;;;;;;4.43;2.80;;;22.00;17.40;;;;;;4988988;28;20206;-81
2022/09/23 10:54:18;;;;;;;7.50;3.10;;;22.20;16.80;;;;;;4989393;28;20698;-83
2022/09/23 10:56:50;;;;;;;2.80;2.45;;;21.80;17.40;;;;;;4990907;28;20226;-82
2022/09/23 10:59:47;;;;;;;3.17;2.88;;;22.00;16.00;;;;;;4990190;28;20193;-81
2022/09/23 11:02:37;;;;;;;3.63;2.60;;;21.80;15.90;;;;;;4996223;28;20200;-81
2022/09/23 11:05:19;;;;;;;3.40;2.75;;;21.30;17.60;;;;;;4982652;28;20224;-80
2022/09/23 11:07:52;;;;;;;4.82;3.67;;;20.90;18.60;;;;;;4978531;28;20203;-83
2022/09/23 11:10:47;;;;;;;5.40;2.90;;;20.70;19.00;;;;;;4991343;28;20210;-82
2022/09/23 11:13:27;;;;;;;4.32;2.83;;;20.20;20.40;;;;;;5053363;28;20260;-83
2022/09/23 11:16:02;;;;;;;4.43;2.65;;;20.00;20.30;;;;;;5049904;28;20198;-82
2022/09/23 11:18:49;;;;;;;2.83;2.50;;;19.80;22.80;;;;;;5057505;28;20274;-82
2022/09/23 11:21:31;;;;;;;3.15;2.80;;;19.60;22.20;;;;;;5053820;28;20205;-84
2022/09/23 11:24:18;;;;;;;2.35;2.10;;;19.20;23.80;;;;;;5055445;28;20200;-84
2022/09/23 11:26:55;;;;;;;2.72;2.45;;;19.40;22.40;;;;;;5048905;28;20210;-84
2022/09/23 11:30:01;;;;;;;3.05;2.22;;;19.60;21.00;;;;;;5055927;28;20201;-84
2022/09/23 11:32:55;;;;;;;3.63;2.30;;;19.70;21.50;;;;;;5011896;28;20582;-84
2022/09/23 11:35:27;;;;;;;4.38;2.63;;;19.50;21.00;;;;;;5011109;28;20196;-84
2022/09/23 11:38:05;;;;;;;3.50;2.35;;;19.50;20.00;;;;;;5011622;28;20227;-84
2022/09/23 11:40:35;;;;;;;3.17;2.33;;;19.40;21.10;;;;;;5008265;28;20210;-84
2022/09/23 11:43:09;;;;;;;5.60;2.53;;;19.40;20.60;;;;;;5015507;28;20202;-84
2022/09/23 11:45:44;;;;;;;3.97;2.80;;;19.40;21.60;;;;;;5004523;28;21030;-84
2022/09/23 11:48:15;;;;;;;4.40;2.55;;;19.30;21.90;;;;;;5012321;28;20221;-84
2022/09/23 11:50:47;;;;;;;3.97;2.90;;;19.30;21.90;;;;;;5007944;28;20686;-85
2022/09/23 11:53:21;;;;;;;5.93;2.33;;;19.30;21.60;;;;;;5007635;28;20195;-84
2022/09/23 11:55:55;;;;;;;5.05;3.30;;;19.50;22.80;;;;;;5005472;28;20203;-85
2022/09/23 11:58:26;;;;;;;3.80;2.30;;;19.40;21.90;;;;;;5014074;28;20184;-83
2022/09/23 12:01:00;;;;;;;4.25;2.72;;;19.40;21.00;;;;;;5013869;28;20196;-84
2022/09/23 12:03:36;;;;;;;9.40;2.90;;;19.40;19.90;;;;;;5013352;28;20198;-84
2022/09/23 12:06:06;;;;;;;3.70;2.55;;;19.50;21.20;;;;;;5013580;28;20345;-84
2022/09/23 12:08:35;;;;;;;2.67;2.33;;;19.30;22.10;;;;;;5020444;28;20273;-84
2022/09/23 12:11:18;;;;;;;5.20;2.60;;;19.20;23.60;;;;;;5052685;28;20209;-85
2022/09/23 12:13:52;;;;;;;3.22;2.60;;;19.30;24.60;;;;;;5053282;28;20198;-84
2022/09/23 12:16:38;;;;;;;4.55;3.00;;;19.40;24.20;;;;;;5051640;28;20193;-84
2022/09/23 12:19:17;;;;;;;3.50;2.95;;;19.30;22.10;;;;;;5050163;28;20197;-83
2022/09/23 12:22:14;;;;;;;3.47;2.50;;;19.20;22.50;;;;;;5046315;28;20204;-83
2022/09/23 12:24:56;;;;;;;5.32;2.65;;;18.90;23.80;;;;;;5049523;28;20201;-83
2022/09/23 12:27:32;;;;;;;5.07;2.75;;;18.90;24.50;;;;;;5046859;28;20286;-85
2022/09/23 12:30:02;;;;;;;6.53;2.78;;;19.00;23.00;;;;;;5053780;28;20193;-83
2022/09/23 12:32:32;;;;;;;3.92;2.42;;;19.20;23.30;;;;;;5048901;28;20195;-85
2022/09/23 12:35:01;;;;;;;5.63;2.97;;;19.30;23.00;;;;;;5051847;28;20202;-83
2022/09/23 12:37:32;;;;;;;4.18;2.65;;;19.30;22.80;;;;;;5053118;28;20213;-85
2022/09/23 12:40:05;;;;;;;3.90;2.85;;;19.20;25.60;;;;;;5041677;28;20195;-86
2022/09/23 12:42:45;;;;;;;5.28;2.80;;;19.30;25.20;;;;;;5052885;28;20202;-86
2022/09/23 12:45:37;;;;;;;5.03;2.72;;;19.10;23.80;;;;;;5049451;28;20198;-85
2022/09/23 12:48:41;;;;;;;3.13;2.10;;;19.30;22.90;;;;;;5048598;28;20680;-86
2022/09/23 12:51:16;;;;;;;3.75;2.75;;;19.50;23.40;;;;;;4990039;28;20303;-85
2022/09/23 12:54:20;;;;;;;4.93;2.40;;;19.50;22.90;;;;;;4997641;28;20195;-84
2022/09/23 12:57:01;;;;;;;3.03;2.55;;;19.50;23.90;;;;;;4993397;28;20310;-83
2022/09/23 12:59:31;;;;;;;4.00;3.60;;;19.50;23.20;;;;;;4986258;28;20196;-87
2022/09/23 13:02:26;;;;;;;3.78;3.13;;;19.40;23.60;;;;;;4982923;28;20200;-83
2022/09/23 13:07:47;;;;;;;3.33;3.03;;;19.40;22.40;;;;;;4986213;28;20208;-83
2022/09/23 13:10:25;;;;;;;4.15;3.50;;;19.40;22.30;;;;;;4988140;28;20815;-83
2022/09/23 13:12:54;;;;;;;4.43;3.22;;;19.00;22.00;;;;;;4990680;28;20208;-83
2022/09/23 13:15:28;;;;;;;4.20;2.78;;;18.90;22.80;;;;;;4991989;28;20206;-83
2022/09/23 13:18:49;;;;;;;4.78;2.92;;;19.00;24.70;;;;;;4990303;28;20235;-84
2022/09/23 13:21:54;;;;;;;5.80;3.08;;;19.10;24.10;;;;;;4990560;28;20726;-83
2022/09/23 13:24:45;;;;;;;3.90;2.97;;;19.10;23.90;;;;;;4994746;28;20200;-83
2022/09/23 13:27:20;;;;;;;3.50;3.20;;;19.00;24.60;;;;;;4987750;28;20228;-84
2022/09/23 13:29:53;;;;;;;3.22;2.65;;;19.10;23.20;;;;;;5057090;28;20198;-87
2022/09/23 13:32:22;;;;;;;5.15;3.10;;;19.20;23.60;;;;;;5050027;28;20209;-83
2022/09/23 13:34:57;;;;;;;5.82;2.92;;;19.20;22.90;;;;;;5045368;28;20721;-88
2022/09/23 13:38:17;;;;;;;7.13;2.92;;;19.30;24.10;;;;;;5051705;28;20291;-85